Time;durP1;ratioP1;P1;durP2;ratioP2;P2;SDS_P1;SDS_P2;PMS_P1;PMS_P2;Temp;Humidity;BMP_temperature;BMP_pressure;BME280_temperature;BME280_humidity;BME280_pressure;Samples;Min_cycle;Max_cycle;Signal;HPM_P1;HPM_P2
2023/09/23 00:00:35;;;;;;;18.30;11.88;;;12.30;99.90;;;;;;5054980;28;20517;-67
2023/09/23 00:03:08;;;;;;;19.38;12.30;;;12.30;99.90;;;;;;5061586;28;20166;-67
2023/09/23 00:05:43;;;;;;;20.98;13.75;;;12.30;99.90;;;;;;5086052;28;20044;-68
2023/09/23 00:08:13;;;;;;;22.13;15.10;;;12.30;99.90;;;;;;5055821;28;20044;-68
2023/09/23 00:10:50;;;;;;;24.93;15.97;;;12.30;99.90;;;;;;5053829;28;20519;-68
2023/09/23 00:13:18;;;;;;;23.25;16.30;;;12.30;99.90;;;;;;5068891;28;20037;-67
2023/09/23 00:15:43;;;;;;;23.35;15.95;;;12.30;99.90;;;;;;5067017;28;20040;-67
2023/09/23 00:18:09;;;;;;;25.73;17.23;;;12.30;99.90;;;;;;5064967;28;20020;-67
2023/09/23 00:20:36;;;;;;;27.02;18.15;;;12.30;99.90;;;;;;5073237;28;20436;-67
2023/09/23 00:23:05;;;;;;;24.88;16.45;;;12.30;99.90;;;;;;5073556;28;20028;-67
2023/09/23 00:25:31;;;;;;;24.95;18.13;;;12.30;99.90;;;;;;5072705;28;20040;-67
2023/09/23 00:27:57;;;;;;;25.80;17.33;;;12.30;99.90;;;;;;5072156;28;20364;-67
2023/09/23 00:30:22;;;;;;;27.38;17.77;;;12.30;99.90;;;;;;5072386;28;20452;-67
2023/09/23 00:32:49;;;;;;;24.88;17.33;;;12.30;99.90;;;;;;5062736;28;20036;-68
2023/09/23 00:35:15;;;;;;;20.75;13.43;;;12.30;99.90;;;;;;5076527;28;20029;-68
2023/09/23 00:37:42;;;;;;;23.27;13.45;;;12.20;99.90;;;;;;5062292;28;20028;-67
2023/09/23 00:40:18;;;;;;;19.17;11.30;;;12.20;99.90;;;;;;5093432;28;20020;-68
2023/09/23 00:42:47;;;;;;;15.32;9.65;;;12.20;99.90;;;;;;5093455;28;20519;-67
2023/09/23 00:45:15;;;;;;;15.82;8.80;;;12.10;99.90;;;;;;5074402;28;20036;-67
2023/09/23 00:47:42;;;;;;;16.45;8.18;;;12.10;99.90;;;;;;5052910;28;20041;-67
2023/09/23 00:50:18;;;;;;;14.77;8.25;;;12.10;99.90;;;;;;5068098;28;20564;-67
2023/09/23 00:52:47;;;;;;;14.02;8.30;;;12.10;99.90;;;;;;5084600;28;20049;-67
2023/09/23 00:55:16;;;;;;;17.10;9.45;;;12.00;99.90;;;;;;5054071;28;20071;-68
2023/09/23 00:57:43;;;;;;;17.15;10.13;;;12.00;99.90;;;;;;5072464;28;20028;-67
2023/09/23 01:00:23;;;;;;;18.35;10.48;;;12.00;99.90;;;;;;5072789;28;20032;-68
2023/09/23 01:02:49;;;;;;;16.55;10.85;;;12.10;99.90;;;;;;5072881;28;20035;-67
2023/09/23 01:05:16;;;;;;;17.80;11.40;;;12.10;99.90;;;;;;5052942;28;20036;-67
2023/09/23 01:07:42;;;;;;;17.50;10.65;;;12.00;99.90;;;;;;5052586;28;20124;-68
2023/09/23 01:10:08;;;;;;;18.83;11.95;;;12.00;99.90;;;;;;5067354;28;20507;-67
2023/09/23 01:12:34;;;;;;;17.75;10.88;;;12.00;99.90;;;;;;5055146;28;20484;-68
2023/09/23 01:15:16;;;;;;;18.15;11.43;;;12.10;99.90;;;;;;5067902;28;20111;-67
2023/09/23 01:17:43;;;;;;;;;;;12.00;99.90;;;;;;5070137;28;20047;-68
2023/09/23 01:20:13;;;;;;;19.20;10.93;;;12.00;99.90;;;;;;5071072;28;20024;-67
2023/09/23 01:22:39;;;;;;;18.05;10.65;;;12.00;99.90;;;;;;5071272;28;20020;-68
2023/09/23 01:25:05;;;;;;;17.70;10.10;;;12.00;99.90;;;;;;5069961;28;20043;-68
2023/09/23 01:27:34;;;;;;;20.55;10.30;;;12.00;99.90;;;;;;5069964;28;20043;-68
2023/09/23 01:30:05;;;;;;;16.55;9.93;;;12.00;99.90;;;;;;5072776;28;20131;-68
2023/09/23 01:32:48;;;;;;;14.73;9.18;;;12.00;99.90;;;;;;5060928;28;20052;-68
2023/09/23 01:35:16;;;;;;;16.25;7.80;;;12.00;99.90;;;;;;5053101;28;20485;-68
2023/09/23 01:37:45;;;;;;;14.40;7.28;;;12.00;99.90;;;;;;5056525;28;20025;-68
2023/09/23 01:40:17;;;;;;;12.18;7.13;;;12.00;99.90;;;;;;5065616;28;20482;-68
2023/09/23 01:42:44;;;;;;;10.77;5.00;;;11.90;99.90;;;;;;5082089;28;20380;-68
2023/09/23 01:45:10;;;;;;;6.20;3.83;;;11.90;99.90;;;;;;5077601;28;20059;-67
2023/09/23 01:47:37;;;;;;;8.75;3.53;;;12.00;99.90;;;;;;5072793;28;20037;-68
2023/09/23 01:50:03;;;;;;;7.07;2.70;;;12.00;99.90;;;;;;5074643;28;20067;-68
2023/09/23 01:52:29;;;;;;;4.05;2.70;;;12.00;99.90;;;;;;5075110;28;20025;-68
2023/09/23 01:54:54;;;;;;;5.55;2.80;;;12.00;99.90;;;;;;5074956;28;20013;-68
2023/09/23 01:57:20;;;;;;;6.82;3.10;;;12.00;99.90;;;;;;5074793;28;20023;-68
2023/09/23 01:59:46;;;;;;;7.78;4.40;;;12.10;99.90;;;;;;5073147;28;20039;-67
2023/09/23 02:02:12;;;;;;;8.18;4.40;;;12.10;99.90;;;;;;5074455;28;20025;-68
2023/09/23 02:04:39;;;;;;;8.70;4.95;;;12.00;99.90;;;;;;5076101;28;20103;-68
2023/09/23 02:07:07;;;;;;;10.45;5.63;;;12.10;99.90;;;;;;5075204;28;20040;-68
2023/09/23 02:09:35;;;;;;;11.73;5.78;;;12.10;99.90;;;;;;5069912;28;20031;-68
2023/09/23 02:12:01;;;;;;;11.48;6.28;;;12.10;99.90;;;;;;5061832;28;20527;-68
2023/09/23 02:14:26;;;;;;;12.15;6.25;;;12.10;99.90;;;;;;5055650;28;20055;-68
2023/09/23 02:16:54;;;;;;;13.93;7.90;;;12.10;99.90;;;;;;5074346;28;20468;-68
2023/09/23 02:19:20;;;;;;;15.50;8.30;;;12.10;99.90;;;;;;5076877;28;20028;-68
2023/09/23 02:21:46;;;;;;;16.83;9.07;;;12.10;99.90;;;;;;5075502;28;20089;-68
2023/09/23 02:24:11;;;;;;;16.42;10.02;;;12.10;99.90;;;;;;5075733;28;20028;-68
2023/09/23 02:26:37;;;;;;;18.73;10.10;;;12.10;99.90;;;;;;5075570;28;20048;-68
2023/09/23 02:29:04;;;;;;;19.33;11.15;;;12.10;99.90;;;;;;5075274;28;20024;-68
2023/09/23 02:31:31;;;;;;;20.75;11.45;;;12.10;99.90;;;;;;5075441;28;20024;-68
2023/09/23 02:33:57;;;;;;;22.67;14.57;;;12.10;99.90;;;;;;5075544;28;20510;-68
2023/09/23 02:36:23;;;;;;;24.00;16.13;;;12.10;99.90;;;;;;5075589;28;20048;-68
2023/09/23 02:38:48;;;;;;;26.00;17.30;;;12.10;99.90;;;;;;5075155;28;20025;-67
2023/09/23 02:41:14;;;;;;;28.70;19.13;;;12.10;99.90;;;;;;5075104;28;20040;-68
2023/09/23 02:43:40;;;;;;;28.80;20.00;;;12.10;99.90;;;;;;5075148;28;20021;-68
2023/09/23 02:46:06;;;;;;;27.58;19.42;;;12.10;99.90;;;;;;5075149;28;20025;-68
2023/09/23 02:48:33;;;;;;;30.38;21.02;;;12.10;99.90;;;;;;5074538;28;20020;-68
2023/09/23 02:51:00;;;;;;;33.08;22.75;;;12.10;99.90;;;;;;5074865;28;20131;-68
2023/09/23 02:53:26;;;;;;;34.42;22.63;;;12.10;99.90;;;;;;5075161;28;20025;-68
2023/09/23 02:56:07;;;;;;;30.63;22.48;;;12.10;99.90;;;;;;5074083;28;20029;-68
2023/09/23 02:58:32;;;;;;;32.78;21.23;;;12.10;99.90;;;;;;5073630;28;20077;-68
2023/09/23 03:00:58;;;;;;;30.15;20.77;;;12.10;99.90;;;;;;5074908;28;20505;-68
2023/09/23 03:03:24;;;;;;;32.92;21.85;;;12.20;99.90;;;;;;5074857;28;20055;-68
2023/09/23 03:05:57;;;;;;;32.30;22.30;;;12.20;99.90;;;;;;5075037;28;20166;-67
2023/09/23 03:08:26;;;;;;;34.78;21.52;;;12.20;99.90;;;;;;5074949;28;20052;-67
2023/09/23 03:10:54;;;;;;;32.97;22.15;;;12.20;99.90;;;;;;5074906;28;20029;-68
2023/09/23 03:13:23;;;;;;;31.50;22.15;;;12.20;99.90;;;;;;5074592;28;20028;-68
2023/09/23 03:15:53;;;;;;;34.60;23.35;;;12.30;99.90;;;;;;5074167;28;20380;-68
2023/09/23 03:18:33;;;;;;;33.85;23.30;;;12.30;99.90;;;;;;5073301;28;20047;-67
2023/09/23 03:21:09;;;;;;;33.75;23.25;;;12.30;99.90;;;;;;5072719;28;20020;-67
2023/09/23 03:23:39;;;;;;;36.25;23.58;;;12.30;99.90;;;;;;5071651;28;20016;-68
2023/09/23 03:26:06;;;;;;;34.35;22.70;;;12.30;99.90;;;;;;5073626;28;20024;-68
2023/09/23 03:28:33;;;;;;;33.15;23.27;;;12.30;99.90;;;;;;5074059;28;20017;-68
2023/09/23 03:31:02;;;;;;;34.17;23.08;;;12.30;99.90;;;;;;5073841;28;20123;-68
2023/09/23 03:33:28;;;;;;;32.97;22.42;;;12.30;99.90;;;;;;5070931;28;20032;-69
2023/09/23 03:35:55;;;;;;;33.13;22.02;;;12.30;99.90;;;;;;5069909;28;20020;-67
2023/09/23 03:38:21;;;;;;;32.20;21.88;;;12.30;99.90;;;;;;5073564;28;20031;-67
2023/09/23 03:40:54;;;;;;;36.55;22.67;;;12.30;99.90;;;;;;5073720;28;20107;-67
2023/09/23 03:43:20;;;;;;;31.17;19.63;;;12.30;99.90;;;;;;5072728;28;20452;-67
2023/09/23 03:45:47;;;;;;;31.95;20.65;;;12.30;99.90;;;;;;5073567;28;20060;-67
2023/09/23 03:48:13;;;;;;;33.10;20.20;;;12.30;99.90;;;;;;5073394;28;20060;-67
2023/09/23 03:50:39;;;;;;;34.83;20.20;;;12.40;99.90;;;;;;5073329;28;20075;-69
2023/09/23 03:53:05;;;;;;;29.30;17.25;;;12.40;99.90;;;;;;5066080;28;20068;-69
2023/09/23 03:55:31;;;;;;;25.13;16.48;;;12.40;99.90;;;;;;5073109;28;20107;-69
2023/09/23 03:57:57;;;;;;;29.48;15.38;;;12.50;99.90;;;;;;5073171;28;20537;-70
2023/09/23 04:00:26;;;;;;;28.05;17.35;;;12.50;99.90;;;;;;5072652;28;20093;-69
2023/09/23 04:02:52;;;;;;;23.92;15.35;;;12.50;99.90;;;;;;5073033;28;20040;-70
2023/09/23 04:05:20;;;;;;;27.98;14.70;;;12.60;99.90;;;;;;5072950;28;20059;-70
2023/09/23 04:07:49;;;;;;;24.17;13.05;;;12.60;99.90;;;;;;5073011;28;20032;-69
2023/09/23 04:10:19;;;;;;;22.27;12.82;;;12.60;99.90;;;;;;5064390;28;20024;-69
2023/09/23 04:12:45;;;;;;;22.88;12.95;;;12.60;99.90;;;;;;5073217;28;20017;-68
2023/09/23 04:15:11;;;;;;;26.67;12.02;;;12.50;99.90;;;;;;5072951;28;20044;-67
2023/09/23 04:17:38;;;;;;;22.52;12.00;;;12.50;99.90;;;;;;5073177;28;20450;-67
2023/09/23 04:20:09;;;;;;;23.17;11.40;;;12.50;99.90;;;;;;5072605;28;20112;-68
2023/09/23 04:22:36;;;;;;;20.67;11.85;;;12.50;99.90;;;;;;5072717;28;20025;-67
2023/09/23 04:25:05;;;;;;;19.95;10.48;;;12.50;99.90;;;;;;5073018;28;20048;-67
2023/09/23 04:27:33;;;;;;;20.10;10.90;;;12.50;99.90;;;;;;5068492;28;20470;-67
2023/09/23 04:30:00;;;;;;;20.77;11.18;;;12.40;99.90;;;;;;5072756;28;20021;-68
2023/09/23 04:32:26;;;;;;;20.38;8.80;;;12.40;99.90;;;;;;5070930;28;20013;-68
2023/09/23 04:34:52;;;;;;;16.88;8.35;;;12.40;99.90;;;;;;5072661;28;20040;-68
2023/09/23 04:37:18;;;;;;;16.67;7.47;;;12.40;99.90;;;;;;5072831;28;20040;-68
2023/09/23 04:39:43;;;;;;;13.85;7.13;;;12.40;99.90;;;;;;5072823;28;20153;-68
2023/09/23 04:42:11;;;;;;;12.90;5.60;;;12.50;99.90;;;;;;5071391;28;20368;-69
2023/09/23 04:44:37;;;;;;;14.60;4.90;;;12.50;99.90;;;;;;5068623;28;20111;-66
2023/09/23 04:47:02;;;;;;;14.63;5.15;;;12.50;99.90;;;;;;5053986;28;20532;-68
2023/09/23 04:49:28;;;;;;;12.48;4.45;;;12.50;99.90;;;;;;5057526;28;20063;-68
2023/09/23 04:51:54;;;;;;;11.18;4.15;;;12.50;99.90;;;;;;5073102;28;20380;-68
2023/09/23 04:54:19;;;;;;;10.73;4.68;;;12.40;99.90;;;;;;5073090;28;20460;-68
2023/09/23 04:56:45;;;;;;;11.90;4.47;;;12.40;99.90;;;;;;5072183;28;20125;-68
2023/09/23 04:59:12;;;;;;;10.38;4.10;;;12.40;99.90;;;;;;5072945;28;20036;-68
2023/09/23 05:01:38;;;;;;;9.57;3.70;;;12.50;99.90;;;;;;5067418;28;20086;-68
2023/09/23 05:04:08;;;;;;;9.95;4.10;;;12.40;99.90;;;;;;5052858;28;20412;-68
2023/09/23 05:06:35;;;;;;;11.07;3.72;;;12.50;99.90;;;;;;5051643;28;20060;-68
2023/09/23 05:09:02;;;;;;;7.00;3.20;;;12.40;99.90;;;;;;5052965;28;20025;-68
2023/09/23 05:11:27;;;;;;;5.35;2.88;;;12.40;99.90;;;;;;5052414;28;20032;-68
2023/09/23 05:13:53;;;;;;;6.35;3.42;;;12.40;99.90;;;;;;5052566;28;20377;-68
2023/09/23 05:16:19;;;;;;;6.50;3.33;;;12.30;99.90;;;;;;5052490;28;20029;-68
2023/09/23 05:18:45;;;;;;;8.63;3.50;;;12.30;99.90;;;;;;5052629;28;20071;-68
2023/09/23 05:21:12;;;;;;;10.20;3.45;;;12.30;99.90;;;;;;5052531;28;20112;-68
2023/09/23 05:23:40;;;;;;;8.80;3.90;;;12.30;99.90;;;;;;5052661;28;20025;-68
2023/09/23 05:26:07;;;;;;;8.68;4.13;;;12.30;99.90;;;;;;5060634;28;20028;-68
2023/09/23 05:28:33;;;;;;;8.02;4.55;;;12.40;99.90;;;;;;5072446;28;20024;-68
2023/09/23 05:30:59;;;;;;;10.48;5.55;;;12.40;99.90;;;;;;5072690;28;20082;-68
2023/09/23 05:33:25;;;;;;;12.63;5.18;;;12.40;99.90;;;;;;5072439;28;20373;-68
2023/09/23 05:35:52;;;;;;;15.10;4.78;;;12.40;99.90;;;;;;5072143;28;20063;-67
2023/09/23 05:38:19;;;;;;;13.35;4.97;;;12.40;99.90;;;;;;5072340;28;20021;-68
2023/09/23 05:40:46;;;;;;;11.02;5.10;;;12.50;99.90;;;;;;5072196;28;20020;-67
2023/09/23 05:43:11;;;;;;;12.52;5.07;;;12.50;99.90;;;;;;5073260;28;20165;-67
2023/09/23 05:45:37;;;;;;;10.70;5.10;;;12.50;99.90;;;;;;5072233;28;20502;-67
2023/09/23 05:48:04;;;;;;;14.75;6.65;;;12.60;99.90;;;;;;5072372;28;20123;-69
2023/09/23 05:50:30;;;;;;;12.52;5.43;;;12.60;99.90;;;;;;5072647;28;20045;-68
2023/09/23 05:52:56;;;;;;;17.83;6.45;;;12.60;99.90;;;;;;5071260;28;20035;-67
2023/09/23 05:55:22;;;;;;;13.75;5.57;;;12.70;99.90;;;;;;5072645;28;20021;-68
2023/09/23 05:57:49;;;;;;;11.52;5.32;;;12.70;99.90;;;;;;5072126;28;20024;-67
2023/09/23 06:00:15;;;;;;;15.65;5.47;;;12.80;99.90;;;;;;5072493;28;20055;-67
2023/09/23 06:02:41;;;;;;;12.15;5.35;;;12.80;99.90;;;;;;5072382;28;20502;-68
2023/09/23 06:05:07;;;;;;;15.20;6.25;;;12.90;99.90;;;;;;5071150;28;20499;-68
2023/09/23 06:07:33;;;;;;;13.10;5.25;;;13.00;99.90;;;;;;5067065;28;20045;-67
2023/09/23 06:09:59;;;;;;;9.05;5.43;;;13.00;99.90;;;;;;5055125;28;20032;-67
2023/09/23 06:12:29;;;;;;;12.48;5.30;;;13.10;99.90;;;;;;5056901;28;20025;-67
2023/09/23 06:14:56;;;;;;;14.65;5.68;;;13.10;99.90;;;;;;5072123;28;20021;-68
2023/09/23 06:17:22;;;;;;;9.93;4.82;;;13.20;99.90;;;;;;5072112;28;20020;-67
2023/09/23 06:19:48;;;;;;;10.68;4.90;;;13.30;99.90;;;;;;5072170;28;20025;-67
2023/09/23 06:22:13;;;;;;;10.15;4.72;;;13.40;99.90;;;;;;5072689;28;20081;-67
2023/09/23 06:24:39;;;;;;;11.50;4.43;;;13.50;99.90;;;;;;5075964;28;20100;-67
2023/09/23 06:27:04;;;;;;;11.38;4.57;;;13.60;99.90;;;;;;5069988;28;20085;-68
2023/09/23 06:29:30;;;;;;;11.77;6.40;;;13.60;99.90;;;;;;5063168;28;20032;-68
2023/09/23 06:31:55;;;;;;;13.50;5.20;;;13.70;99.90;;;;;;5055639;28;20103;-67
2023/09/23 06:34:21;;;;;;;8.32;3.33;;;13.70;99.90;;;;;;5074083;28;20028;-67
2023/09/23 06:36:47;;;;;;;11.18;4.78;;;13.70;99.90;;;;;;5075504;28;20028;-67
2023/09/23 06:39:12;;;;;;;16.10;8.45;;;13.80;99.90;;;;;;5075448;28;20086;-67
2023/09/23 06:41:38;;;;;;;11.65;6.10;;;13.80;99.90;;;;;;5073974;28;20040;-67
2023/09/23 06:44:03;;;;;;;20.13;8.73;;;13.90;99.90;;;;;;5075181;28;20112;-67
2023/09/23 06:46:30;;;;;;;9.85;4.60;;;14.00;99.90;;;;;;5075186;28;20071;-68
2023/09/23 06:48:55;;;;;;;10.25;4.32;;;14.20;99.90;;;;;;5073789;28;20032;-68
2023/09/23 06:51:21;;;;;;;7.70;4.20;;;14.40;99.90;;;;;;5071974;28;20044;-67
2023/09/23 06:53:47;;;;;;;19.40;9.77;;;14.50;99.90;;;;;;5075050;28;20071;-67
2023/09/23 06:56:12;;;;;;;8.27;3.60;;;14.60;99.90;;;;;;5074731;28;20094;-67
2023/09/23 06:58:38;;;;;;;12.45;5.80;;;14.70;99.90;;;;;;5074605;28;20109;-68
2023/09/23 07:01:03;;;;;;;10.70;4.07;;;14.80;99.90;;;;;;5075139;28;20037;-67
2023/09/23 07:03:29;;;;;;;22.73;9.32;;;14.90;99.90;;;;;;5075135;28;20115;-67
2023/09/23 07:05:54;;;;;;;13.80;5.72;;;15.10;99.90;;;;;;5074914;28;20068;-69
2023/09/23 07:08:20;;;;;;;14.38;5.70;;;15.10;99.90;;;;;;5074480;28;20051;-69
2023/09/23 07:10:45;;;;;;;13.13;5.80;;;15.00;99.90;;;;;;5068334;28;20033;-70
2023/09/23 07:13:11;;;;;;;13.13;6.32;;;14.90;99.90;;;;;;5055203;28;20029;-70
2023/09/23 07:15:37;;;;;;;10.23;6.00;;;14.80;99.90;;;;;;5054778;28;20104;-69
2023/09/23 07:18:04;;;;;;;11.57;4.95;;;14.70;99.90;;;;;;5054624;28;20025;-69
2023/09/23 07:20:30;;;;;;;10.60;4.88;;;14.60;99.90;;;;;;5054786;28;20108;-68
2023/09/23 07:22:56;;;;;;;13.80;6.38;;;14.60;99.90;;;;;;5054798;28;20475;-68
2023/09/23 07:25:21;;;;;;;16.85;6.47;;;14.60;99.90;;;;;;5061181;28;20059;-68
2023/09/23 07:27:47;;;;;;;15.68;6.60;;;14.50;99.90;;;;;;5067723;28;20111;-68
2023/09/23 07:30:14;;;;;;;20.25;8.35;;;14.50;99.90;;;;;;5054644;28;20106;-68
2023/09/23 07:32:40;;;;;;;17.80;7.82;;;14.50;99.90;;;;;;5054241;28;20159;-69
2023/09/23 07:35:07;;;;;;;16.65;8.00;;;14.50;99.90;;;;;;5054465;28;20033;-68
2023/09/23 07:37:33;;;;;;;15.68;6.88;;;14.60;99.90;;;;;;5053882;28;20052;-68
2023/09/23 07:39:59;;;;;;;14.38;6.40;;;14.70;99.90;;;;;;5053796;28;20051;-68
2023/09/23 07:42:24;;;;;;;15.60;6.80;;;14.90;99.90;;;;;;5054277;28;20505;-67
2023/09/23 07:44:50;;;;;;;15.68;6.22;;;14.90;99.90;;;;;;5054267;28;20091;-67
2023/09/23 07:47:15;;;;;;;15.63;6.15;;;15.00;99.90;;;;;;5075832;28;20040;-67
2023/09/23 07:49:41;;;;;;;10.00;4.05;;;15.30;99.90;;;;;;5092874;28;20430;-67
2023/09/23 07:52:06;;;;;;;9.40;4.25;;;15.70;99.90;;;;;;5094575;28;20043;-67
2023/09/23 07:54:33;;;;;;;17.65;7.78;;;16.20;99.90;;;;;;5092738;28;20056;-68
2023/09/23 07:56:58;;;;;;;10.60;3.92;;;16.60;99.90;;;;;;5076444;28;20060;-68
2023/09/23 07:59:24;;;;;;;21.27;10.30;;;16.80;99.90;;;;;;5073288;28;20056;-68
2023/09/23 08:01:49;;;;;;;12.35;6.05;;;16.90;99.90;;;;;;5073783;28;20025;-68
2023/09/23 08:04:15;;;;;;;8.65;3.17;;;16.90;99.90;;;;;;5086329;28;20032;-68
2023/09/23 08:06:41;;;;;;;11.00;4.40;;;16.90;99.90;;;;;;5086213;28;20124;-67
2023/09/23 08:09:08;;;;;;;6.03;1.98;;;16.80;99.90;;;;;;5068728;28;20035;-68
2023/09/23 08:11:34;;;;;;;7.82;2.58;;;16.70;99.90;;;;;;5059377;28;20449;-68
2023/09/23 08:14:00;;;;;;;7.85;2.70;;;16.70;99.90;;;;;;5073124;28;20013;-67
2023/09/23 08:16:26;;;;;;;9.00;3.35;;;16.80;99.90;;;;;;5073477;28;20040;-67
2023/09/23 08:18:52;;;;;;;7.88;3.22;;;16.90;99.90;;;;;;5072845;28;20028;-67
2023/09/23 08:21:17;;;;;;;7.30;3.10;;;17.10;99.90;;;;;;5073082;28;20029;-67
2023/09/23 08:23:43;;;;;;;8.27;2.95;;;17.30;99.90;;;;;;5072975;28;20021;-67
2023/09/23 08:26:10;;;;;;;6.88;2.45;;;17.30;99.90;;;;;;5072874;28;20456;-67
2023/09/23 08:28:36;;;;;;;9.43;4.95;;;17.40;99.90;;;;;;5072319;28;20347;-67
2023/09/23 08:31:01;;;;;;;8.02;2.38;;;17.30;99.90;;;;;;5066871;28;20043;-67
2023/09/23 08:33:27;;;;;;;10.35;3.28;;;17.30;99.90;;;;;;5076242;28;20032;-68
2023/09/23 08:35:54;;;;;;;11.27;4.15;;;17.30;99.90;;;;;;5065163;28;20457;-67
2023/09/23 08:38:23;;;;;;;9.18;3.15;;;17.30;99.90;;;;;;5084901;28;20039;-67
2023/09/23 08:40:52;;;;;;;12.00;3.72;;;17.30;99.90;;;;;;5092942;28;20464;-67
2023/09/23 08:43:38;;;;;;;8.02;2.50;;;17.30;99.90;;;;;;5093537;28;20027;-67
2023/09/23 08:46:09;;;;;;;8.35;3.08;;;17.30;99.90;;;;;;5075845;28;20025;-67
2023/09/23 08:48:38;;;;;;;9.43;4.53;;;17.40;99.90;;;;;;5062713;28;20028;-67
2023/09/23 08:51:06;;;;;;;10.40;4.10;;;17.40;99.90;;;;;;5074149;28;20110;-67
2023/09/23 08:53:39;;;;;;;8.73;2.70;;;17.50;99.90;;;;;;5072534;28;20028;-67
2023/09/23 08:56:06;;;;;;;4.82;1.58;;;17.60;99.90;;;;;;5079548;28;20020;-67
2023/09/23 08:58:32;;;;;;;5.70;2.25;;;17.70;99.90;;;;;;5072855;28;20112;-67
2023/09/23 09:00:58;;;;;;;6.72;2.35;;;17.90;99.90;;;;;;5072716;28;20116;-67
2023/09/23 09:03:24;;;;;;;9.20;3.25;;;18.20;99.90;;;;;;5072156;28;20062;-67
2023/09/23 09:05:52;;;;;;;7.50;1.75;;;18.40;99.90;;;;;;5060271;28;20551;-67
2023/09/23 09:08:19;;;;;;;7.88;1.58;;;18.50;99.90;;;;;;5090800;28;20123;-67
2023/09/23 09:10:46;;;;;;;7.57;2.33;;;18.60;99.90;;;;;;5074740;28;20438;-67
2023/09/23 09:13:13;;;;;;;5.68;2.00;;;18.70;99.90;;;;;;5070444;28;20350;-67
2023/09/23 09:15:39;;;;;;;8.68;2.28;;;18.90;99.90;;;;;;5072740;28;20024;-67
2023/09/23 09:18:05;;;;;;;8.75;3.00;;;18.90;99.90;;;;;;5072907;28;20048;-67
2023/09/23 09:20:31;;;;;;;6.63;2.05;;;19.00;99.90;;;;;;5072827;28;20086;-67
2023/09/23 09:22:57;;;;;;;10.25;3.67;;;19.00;99.90;;;;;;5074677;28;20056;-67
2023/09/23 09:25:23;;;;;;;6.90;2.38;;;19.00;99.90;;;;;;5072668;28;20116;-67
2023/09/23 09:27:53;;;;;;;5.22;1.38;;;19.00;99.90;;;;;;5072605;28;20560;-67
2023/09/23 09:30:19;;;;;;;8.38;2.00;;;19.20;99.90;;;;;;5070490;28;20032;-67
2023/09/23 09:32:46;;;;;;;4.43;1.05;;;19.40;99.90;;;;;;5072377;28;20035;-67
2023/09/23 09:35:15;;;;;;;4.25;1.17;;;19.70;99.90;;;;;;5071269;28;20487;-67
2023/09/23 09:37:47;;;;;;;4.00;1.10;;;19.90;99.90;;;;;;5071271;28;20404;-67
2023/09/23 09:40:18;;;;;;;4.88;1.80;;;19.90;99.90;;;;;;5073019;28;20040;-67
2023/09/23 09:43:02;;;;;;;5.53;2.05;;;19.80;99.90;;;;;;5092742;28;20077;-67
2023/09/23 09:45:34;;;;;;;2.13;1.00;;;19.70;99.90;;;;;;5092795;28;20115;-67
2023/09/23 09:48:03;;;;;;;5.43;1.90;;;19.70;99.90;;;;;;5092981;28;20031;-67
2023/09/23 09:50:33;;;;;;;4.32;1.63;;;19.70;99.90;;;;;;5090828;28;20133;-67
2023/09/23 09:52:59;;;;;;;11.55;1.65;;;19.70;99.90;;;;;;5092782;28;20101;-67
2023/09/23 09:55:25;;;;;;;8.75;1.98;;;19.70;99.90;;;;;;5092633;28;20417;-67
2023/09/23 09:57:54;;;;;;;4.63;1.60;;;19.60;99.90;;;;;;5093922;28;20028;-67
2023/09/23 10:00:30;;;;;;;5.82;1.15;;;19.50;99.90;;;;;;5095350;28;20069;-67
2023/09/23 10:02:59;;;;;;;6.85;1.50;;;19.60;99.90;;;;;;5076352;28;20024;-66
2023/09/23 10:05:31;;;;;;;6.35;1.65;;;19.60;99.90;;;;;;5076193;28;20465;-66
2023/09/23 10:07:57;;;;;;;7.57;1.50;;;19.60;99.90;;;;;;5075496;28;20492;-67
2023/09/23 10:10:33;;;;;;;9.00;1.58;;;19.40;99.90;;;;;;5075675;28;20024;-67
2023/09/23 10:13:12;;;;;;;5.47;1.30;;;19.40;99.90;;;;;;5075846;28;20036;-67
2023/09/23 10:15:40;;;;;;;6.82;1.13;;;19.10;99.90;;;;;;5075879;28;20070;-67
2023/09/23 10:18:13;;;;;;;4.80;1.42;;;18.90;99.90;;;;;;5075847;28;20024;-67
2023/09/23 10:20:41;;;;;;;4.75;1.25;;;18.70;99.90;;;;;;5075693;28;20040;-67
2023/09/23 10:23:08;;;;;;;4.85;1.38;;;18.50;99.90;;;;;;5075805;28;20025;-67
2023/09/23 10:25:42;;;;;;;4.97;0.88;;;18.20;99.90;;;;;;5076065;28;20027;-67
2023/09/23 10:28:19;;;;;;;7.55;1.35;;;17.90;99.90;;;;;;5075878;28;20040;-67
2023/09/23 10:31:03;;;;;;;5.40;1.58;;;17.70;99.90;;;;;;5075681;28;20027;-67
2023/09/23 10:33:31;;;;;;;3.95;1.55;;;17.50;99.90;;;;;;5075490;28;20110;-67
2023/09/23 10:35:58;;;;;;;11.05;1.75;;;17.40;99.90;;;;;;5074676;28;20048;-67
2023/09/23 10:38:25;;;;;;;11.98;2.00;;;17.40;99.90;;;;;;5075536;28;20077;-69
2023/09/23 10:40:52;;;;;;;35.25;3.53;;;17.30;99.90;;;;;;5075264;28;20029;-69
2023/09/23 10:43:18;;;;;;;9.07;1.90;;;17.00;99.90;;;;;;5075204;28;20081;-69
2023/09/23 10:45:44;;;;;;;7.45;1.52;;;16.60;99.90;;;;;;5075731;28;20017;-69
2023/09/23 10:48:10;;;;;;;9.45;2.30;;;16.10;99.90;;;;;;5075355;28;20036;-69
2023/09/23 10:50:35;;;;;;;8.32;2.33;;;15.80;99.90;;;;;;5075470;28;20044;-69
2023/09/23 10:53:01;;;;;;;7.43;2.53;;;15.60;99.90;;;;;;5075202;28;20024;-70
2023/09/23 10:55:27;;;;;;;8.55;2.47;;;15.50;99.90;;;;;;5075362;28;20574;-70
2023/09/23 10:57:53;;;;;;;12.18;2.38;;;15.40;99.90;;;;;;5075064;28;20024;-70
2023/09/23 11:00:20;;;;;;;8.60;2.40;;;15.30;99.90;;;;;;5075316;28;20443;-69
2023/09/23 11:02:52;;;;;;;18.65;3.55;;;15.40;99.90;;;;;;5074952;28;20090;-68
2023/09/23 11:05:20;;;;;;;11.60;3.30;;;15.50;99.90;;;;;;5075133;28;20025;-68
2023/09/23 11:07:45;;;;;;;9.68;2.38;;;15.70;99.90;;;;;;5073044;28;20384;-68
2023/09/23 11:10:12;;;;;;;15.80;2.65;;;16.00;99.90;;;;;;5074752;28;20025;-68
2023/09/23 11:12:42;;;;;;;9.88;3.03;;;16.30;99.90;;;;;;5074667;28;20428;-68
2023/09/23 11:15:08;;;;;;;10.43;2.10;;;16.70;99.90;;;;;;5074822;28;20112;-67
2023/09/23 11:17:34;;;;;;;16.75;2.22;;;17.40;99.90;;;;;;5074669;28;20104;-69
2023/09/23 11:20:00;;;;;;;14.88;2.25;;;17.80;99.90;;;;;;5074888;28;20020;-69
2023/09/23 11:22:30;;;;;;;8.10;1.63;;;17.90;99.90;;;;;;5073076;28;20115;-69
2023/09/23 11:24:57;;;;;;;9.18;1.55;;;17.70;99.90;;;;;;5074274;28;20064;-69
2023/09/23 11:27:24;;;;;;;8.63;1.58;;;17.40;99.90;;;;;;5074350;28;20063;-70
2023/09/23 11:29:51;;;;;;;8.35;1.67;;;17.20;99.90;;;;;;5074318;28;20064;-69
2023/09/23 11:32:24;;;;;;;7.40;1.52;;;17.00;99.90;;;;;;5074330;28;20477;-68
2023/09/23 11:34:52;;;;;;;11.02;1.60;;;16.90;99.90;;;;;;5074245;28;20090;-68
2023/09/23 11:37:20;;;;;;;9.35;1.50;;;16.80;99.90;;;;;;5074379;28;20059;-68
2023/09/23 11:39:46;;;;;;;6.90;1.65;;;16.80;99.90;;;;;;5074234;28;20108;-68
2023/09/23 11:42:12;;;;;;;11.68;3.35;;;17.10;99.90;;;;;;5074335;28;20090;-68
2023/09/23 11:44:38;;;;;;;9.93;2.65;;;17.30;99.90;;;;;;5076986;28;20467;-67
2023/09/23 11:47:04;;;;;;;7.38;2.17;;;17.50;99.90;;;;;;5082843;28;20047;-68
2023/09/23 11:49:29;;;;;;;12.02;4.78;;;17.70;99.90;;;;;;5087001;28;20495;-68
2023/09/23 11:51:55;;;;;;;13.68;4.25;;;17.80;99.90;;;;;;5094084;28;20125;-68
2023/09/23 11:54:20;;;;;;;10.73;3.05;;;17.80;99.90;;;;;;5076182;28;20036;-68
2023/09/23 11:56:46;;;;;;;6.78;2.53;;;17.90;99.90;;;;;;5073822;28;20033;-68
2023/09/23 11:59:13;;;;;;;8.90;2.75;;;18.00;99.90;;;;;;5072703;28;20181;-68
2023/09/23 12:01:39;;;;;;;6.10;1.88;;;18.20;99.90;;;;;;5079072;28;20516;-68
2023/09/23 12:04:04;;;;;;;7.03;2.55;;;18.30;99.90;;;;;;5074270;28;20078;-68
2023/09/23 12:06:34;;;;;;;10.57;2.95;;;18.40;99.90;;;;;;5086211;28;20031;-67
2023/09/23 12:09:03;;;;;;;6.13;2.22;;;18.70;99.90;;;;;;5094179;28;20396;-67
2023/09/23 12:11:30;;;;;;;9.50;3.10;;;19.00;99.90;;;;;;5093848;28;20036;-68
2023/09/23 12:13:55;;;;;;;3.72;1.50;;;19.50;99.90;;;;;;5085050;28;20028;-68
2023/09/23 12:16:21;;;;;;;7.00;1.38;;;20.00;99.90;;;;;;5072363;28;20028;-67
2023/09/23 12:18:48;;;;;;;6.97;2.20;;;20.60;99.90;;;;;;5081789;28;20020;-67
2023/09/23 12:21:16;;;;;;;3.78;1.80;;;21.20;99.90;;;;;;5092453;28;20536;-68
2023/09/23 12:23:42;;;;;;;4.03;1.80;;;21.70;99.90;;;;;;5093312;28;20032;-68
2023/09/23 12:26:12;;;;;;;5.85;1.75;;;22.90;99.90;;;;;;5092826;28;20034;-68
2023/09/23 12:28:37;;;;;;;5.13;0.90;;;24.50;99.90;;;;;;5092779;28;20059;-68
2023/09/23 12:31:04;;;;;;;3.30;1.63;;;25.70;99.90;;;;;;5092582;28;20024;-68
2023/09/23 12:33:29;;;;;;;4.22;1.40;;;26.80;99.90;;;;;;5092646;28;20021;-67
2023/09/23 12:35:55;;;;;;;3.83;1.13;;;27.30;99.90;;;;;;5092682;28;20074;-67
2023/09/23 12:38:21;;;;;;;3.67;0.70;;;27.40;99.90;;;;;;5092968;28;20112;-67